sensor_id;sensor_type;location;lat;lon;timestamp;P1;durP1;ratioP1;P2;durP2;ratioP2
26951;SDS011;14507;52.418;13.398;2023-04-03T00:01:12;10.48;;;2.10;;
26951;SDS011;14507;52.418;13.398;2023-04-03T00:03:39;8.52;;;1.92;;
26951;SDS011;14507;52.418;13.398;2023-04-03T00:06:06;7.78;;;1.77;;
26951;SDS011;14507;52.418;13.398;2023-04-03T00:08:33;12.90;;;2.40;;
26951;SDS011;14507;52.418;13.398;2023-04-03T00:10:59;10.82;;;2.13;;
26951;SDS011;14507;52.418;13.398;2023-04-03T00:13:26;10.40;;;2.15;;
26951;SDS011;14507;52.418;13.398;2023-04-03T00:15:51;9.30;;;1.73;;
26951;SDS011;14507;52.418;13.398;2023-04-03T00:18:18;7.47;;;1.92;;
26951;SDS011;14507;52.418;13.398;2023-04-03T00:20:43;8.85;;;1.90;;
26951;SDS011;14507;52.418;13.398;2023-04-03T00:23:09;11.02;;;1.88;;
26951;SDS011;14507;52.418;13.398;2023-04-03T00:25:35;8.23;;;1.98;;
26951;SDS011;14507;52.418;13.398;2023-04-03T00:28:01;11.80;;;1.92;;
26951;SDS011;14507;52.418;13.398;2023-04-03T00:30:27;8.73;;;2.15;;
26951;SDS011;14507;52.418;13.398;2023-04-03T00:32:53;9.05;;;1.80;;
26951;SDS011;14507;52.418;13.398;2023-04-03T00:35:19;10.32;;;2.22;;
26951;SDS011;14507;52.418;13.398;2023-04-03T00:37:46;7.90;;;1.73;;
26951;SDS011;14507;52.418;13.398;2023-04-03T00:40:12;8.77;;;1.73;;
26951;SDS011;14507;52.418;13.398;2023-04-03T00:42:40;12.17;;;2.00;;
26951;SDS011;14507;52.418;13.398;2023-04-03T00:47:36;6.18;;;1.83;;
26951;SDS011;14507;52.418;13.398;2023-04-03T00:50:02;7.35;;;2.33;;
26951;SDS011;14507;52.418;13.398;2023-04-03T00:52:28;12.18;;;2.25;;
26951;SDS011;14507;52.418;13.398;2023-04-03T00:54:57;9.48;;;1.85;;
26951;SDS011;14507;52.418;13.398;2023-04-03T00:57:27;7.80;;;1.63;;
26951;SDS011;14507;52.418;13.398;2023-04-03T00:59:56;9.13;;;2.03;;
26951;SDS011;14507;52.418;13.398;2023-04-03T01:02:26;7.63;;;1.73;;
26951;SDS011;14507;52.418;13.398;2023-04-03T01:04:52;7.95;;;2.20;;
26951;SDS011;14507;52.418;13.398;2023-04-03T01:07:19;8.48;;;1.95;;
26951;SDS011;14507;52.418;13.398;2023-04-03T01:09:51;7.13;;;1.80;;
26951;SDS011;14507;52.418;13.398;2023-04-03T01:12:20;7.47;;;2.05;;
26951;SDS011;14507;52.418;13.398;2023-04-03T01:14:49;6.65;;;1.80;;
26951;SDS011;14507;52.418;13.398;2023-04-03T01:17:59;10.70;;;1.90;;
26951;SDS011;14507;52.418;13.398;2023-04-03T01:26:11;11.65;;;1.90;;
26951;SDS011;14507;52.418;13.398;2023-04-03T01:28:37;7.53;;;1.55;;
26951;SDS011;14507;52.418;13.398;2023-04-03T01:31:18;8.95;;;2.08;;
26951;SDS011;14507;52.418;13.398;2023-04-03T01:34:14;5.15;;;1.45;;
26951;SDS011;14507;52.418;13.398;2023-04-03T01:36:40;7.70;;;1.95;;
26951;SDS011;14507;52.418;13.398;2023-04-03T01:39:06;7.68;;;1.90;;
26951;SDS011;14507;52.418;13.398;2023-04-03T01:41:32;10.27;;;1.95;;
26951;SDS011;14507;52.418;13.398;2023-04-03T01:43:57;6.93;;;1.70;;
26951;SDS011;14507;52.418;13.398;2023-04-03T01:46:23;8.25;;;1.80;;
26951;SDS011;14507;52.418;13.398;2023-04-03T01:48:49;6.70;;;1.65;;
26951;SDS011;14507;52.418;13.398;2023-04-03T01:51:14;6.95;;;1.90;;
26951;SDS011;14507;52.418;13.398;2023-04-03T01:53:40;7.30;;;2.00;;
26951;SDS011;14507;52.418;13.398;2023-04-03T01:56:06;6.57;;;2.08;;
26951;SDS011;14507;52.418;13.398;2023-04-03T01:58:33;8.95;;;2.15;;
26951;SDS011;14507;52.418;13.398;2023-04-03T02:00:59;8.68;;;1.85;;
26951;SDS011;14507;52.418;13.398;2023-04-03T02:03:25;11.93;;;1.90;;
26951;SDS011;14507;52.418;13.398;2023-04-03T02:05:51;8.07;;;2.20;;
26951;SDS011;14507;52.418;13.398;2023-04-03T02:08:17;9.73;;;2.25;;
26951;SDS011;14507;52.418;13.398;2023-04-03T02:10:43;11.50;;;1.88;;
26951;SDS011;14507;52.418;13.398;2023-04-03T02:13:10;8.15;;;1.90;;
26951;SDS011;14507;52.418;13.398;2023-04-03T02:15:37;6.70;;;1.98;;
26951;SDS011;14507;52.418;13.398;2023-04-03T02:18:03;9.68;;;2.33;;
26951;SDS011;14507;52.418;13.398;2023-04-03T02:20:29;6.80;;;1.80;;
26951;SDS011;14507;52.418;13.398;2023-04-03T02:22:55;6.90;;;2.00;;
26951;SDS011;14507;52.418;13.398;2023-04-03T02:25:20;6.82;;;2.13;;
26951;SDS011;14507;52.418;13.398;2023-04-03T02:27:46;7.10;;;1.88;;
26951;SDS011;14507;52.418;13.398;2023-04-03T02:30:12;9.85;;;2.30;;
26951;SDS011;14507;52.418;13.398;2023-04-03T02:32:39;12.93;;;2.30;;
26951;SDS011;14507;52.418;13.398;2023-04-03T02:35:05;8.75;;;2.03;;
26951;SDS011;14507;52.418;13.398;2023-04-03T02:37:31;10.50;;;2.22;;
26951;SDS011;14507;52.418;13.398;2023-04-03T02:39:57;9.55;;;2.03;;
26951;SDS011;14507;52.418;13.398;2023-04-03T02:42:23;13.05;;;2.13;;
26951;SDS011;14507;52.418;13.398;2023-04-03T02:44:48;13.02;;;2.60;;
26951;SDS011;14507;52.418;13.398;2023-04-03T02:47:14;8.57;;;2.47;;
26951;SDS011;14507;52.418;13.398;2023-04-03T02:49:40;15.10;;;3.17;;
26951;SDS011;14507;52.418;13.398;2023-04-03T02:52:08;15.23;;;2.60;;
26951;SDS011;14507;52.418;13.398;2023-04-03T02:54:34;12.88;;;2.72;;
26951;SDS011;14507;52.418;13.398;2023-04-03T02:56:59;7.82;;;2.30;;
26951;SDS011;14507;52.418;13.398;2023-04-03T02:59:25;9.73;;;2.28;;
26951;SDS011;14507;52.418;13.398;2023-04-03T03:01:51;10.10;;;2.05;;
26951;SDS011;14507;52.418;13.398;2023-04-03T03:04:17;5.78;;;1.88;;
26951;SDS011;14507;52.418;13.398;2023-04-03T03:06:43;9.93;;;2.25;;
26951;SDS011;14507;52.418;13.398;2023-04-03T03:09:08;11.82;;;2.47;;
26951;SDS011;14507;52.418;13.398;2023-04-03T03:11:34;12.32;;;2.13;;
26951;SDS011;14507;52.418;13.398;2023-04-03T03:13:59;6.00;;;2.40;;
26951;SDS011;14507;52.418;13.398;2023-04-03T03:16:25;10.13;;;2.35;;
26951;SDS011;14507;52.418;13.398;2023-04-03T03:18:51;8.20;;;2.08;;
26951;SDS011;14507;52.418;13.398;2023-04-03T03:21:16;7.07;;;2.47;;
26951;SDS011;14507;52.418;13.398;2023-04-03T03:23:42;7.28;;;2.08;;
26951;SDS011;14507;52.418;13.398;2023-04-03T03:26:09;6.95;;;2.45;;
26951;SDS011;14507;52.418;13.398;2023-04-03T03:28:35;10.70;;;2.28;;
26951;SDS011;14507;52.418;13.398;2023-04-03T03:31:03;12.18;;;3.58;;
26951;SDS011;14507;52.418;13.398;2023-04-03T03:33:30;9.87;;;2.47;;
26951;SDS011;14507;52.418;13.398;2023-04-03T03:35:56;12.25;;;2.63;;
26951;SDS011;14507;52.418;13.398;2023-04-03T03:38:22;6.63;;;2.33;;
26951;SDS011;14507;52.418;13.398;2023-04-03T03:40:48;9.57;;;2.55;;
26951;SDS011;14507;52.418;13.398;2023-04-03T03:43:15;9.55;;;2.30;;
26951;SDS011;14507;52.418;13.398;2023-04-03T03:45:41;8.32;;;1.80;;
26951;SDS011;14507;52.418;13.398;2023-04-03T03:48:07;6.88;;;1.88;;
26951;SDS011;14507;52.418;13.398;2023-04-03T03:50:33;10.23;;;2.42;;
26951;SDS011;14507;52.418;13.398;2023-04-03T03:52:59;6.28;;;2.10;;
26951;SDS011;14507;52.418;13.398;2023-04-03T03:55:25;6.53;;;2.15;;
26951;SDS011;14507;52.418;13.398;2023-04-03T03:57:51;10.15;;;2.40;;
26951;SDS011;14507;52.418;13.398;2023-04-03T04:00:17;9.07;;;2.45;;
26951;SDS011;14507;52.418;13.398;2023-04-03T04:02:43;8.45;;;2.67;;
26951;SDS011;14507;52.418;13.398;2023-04-03T04:05:09;12.57;;;2.60;;
26951;SDS011;14507;52.418;13.398;2023-04-03T04:07:34;8.68;;;2.30;;
26951;SDS011;14507;52.418;13.398;2023-04-03T04:10:00;11.32;;;3.05;;
26951;SDS011;14507;52.418;13.398;2023-04-03T04:12:26;13.15;;;1.90;;
26951;SDS011;14507;52.418;13.398;2023-04-03T04:14:51;13.10;;;2.60;;
26951;SDS011;14507;52.418;13.398;2023-04-03T04:17:17;8.10;;;2.45;;
26951;SDS011;14507;52.418;13.398;2023-04-03T04:19:42;6.97;;;2.22;;
26951;SDS011;14507;52.418;13.398;2023-04-03T04:22:08;7.60;;;1.98;;
26951;SDS011;14507;52.418;13.398;2023-04-03T04:24:34;11.02;;;2.35;;
26951;SDS011;14507;52.418;13.398;2023-04-03T04:26:59;9.27;;;2.35;;
26951;SDS011;14507;52.418;13.398;2023-04-03T04:29:25;9.48;;;2.50;;
26951;SDS011;14507;52.418;13.398;2023-04-03T04:31:51;7.07;;;1.80;;
26951;SDS011;14507;52.418;13.398;2023-04-03T04:34:16;9.73;;;2.80;;
26951;SDS011;14507;52.418;13.398;2023-04-03T04:36:42;12.00;;;2.47;;
26951;SDS011;14507;52.418;13.398;2023-04-03T04:39:07;7.53;;;2.35;;
26951;SDS011;14507;52.418;13.398;2023-04-03T04:41:33;8.25;;;2.25;;
26951;SDS011;14507;52.418;13.398;2023-04-03T04:43:59;10.18;;;2.33;;
26951;SDS011;14507;52.418;13.398;2023-04-03T04:46:25;9.65;;;2.63;;
26951;SDS011;14507;52.418;13.398;2023-04-03T04:48:51;8.82;;;2.03;;
26951;SDS011;14507;52.418;13.398;2023-04-03T04:51:17;11.95;;;2.90;;
26951;SDS011;14507;52.418;13.398;2023-04-03T04:53:42;10.55;;;2.53;;
26951;SDS011;14507;52.418;13.398;2023-04-03T04:56:08;9.23;;;2.47;;
26951;SDS011;14507;52.418;13.398;2023-04-03T04:58:34;10.35;;;2.65;;
26951;SDS011;14507;52.418;13.398;2023-04-03T05:01:02;8.98;;;2.53;;
26951;SDS011;14507;52.418;13.398;2023-04-03T05:03:28;8.05;;;2.30;;
26951;SDS011;14507;52.418;13.398;2023-04-03T05:05:55;7.70;;;2.50;;
26951;SDS011;14507;52.418;13.398;2023-04-03T05:08:20;12.13;;;2.22;;
26951;SDS011;14507;52.418;13.398;2023-04-03T05:10:46;10.15;;;2.38;;
26951;SDS011;14507;52.418;13.398;2023-04-03T05:13:12;7.85;;;2.20;;
26951;SDS011;14507;52.418;13.398;2023-04-03T05:15:38;6.25;;;2.30;;
26951;SDS011;14507;52.418;13.398;2023-04-03T05:18:04;10.15;;;2.33;;
26951;SDS011;14507;52.418;13.398;2023-04-03T05:20:30;12.02;;;2.75;;
26951;SDS011;14507;52.418;13.398;2023-04-03T05:22:56;11.80;;;3.20;;
26951;SDS011;14507;52.418;13.398;2023-04-03T05:25:22;8.15;;;2.33;;
26951;SDS011;14507;52.418;13.398;2023-04-03T05:27:48;7.93;;;2.25;;
26951;SDS011;14507;52.418;13.398;2023-04-03T05:30:14;9.13;;;3.08;;
26951;SDS011;14507;52.418;13.398;2023-04-03T05:32:39;13.38;;;3.05;;
26951;SDS011;14507;52.418;13.398;2023-04-03T05:35:07;10.13;;;2.15;;
26951;SDS011;14507;52.418;13.398;2023-04-03T05:37:33;9.55;;;2.78;;
26951;SDS011;14507;52.418;13.398;2023-04-03T05:39:59;9.98;;;2.63;;
26951;SDS011;14507;52.418;13.398;2023-04-03T05:42:24;13.55;;;3.70;;
26951;SDS011;14507;52.418;13.398;2023-04-03T05:44:50;11.43;;;2.70;;
26951;SDS011;14507;52.418;13.398;2023-04-03T05:47:16;10.32;;;2.78;;
26951;SDS011;14507;52.418;13.398;2023-04-03T05:49:43;11.80;;;2.30;;
26951;SDS011;14507;52.418;13.398;2023-04-03T05:52:18;14.02;;;2.50;;
26951;SDS011;14507;52.418;13.398;2023-04-03T05:54:46;6.72;;;2.22;;
26951;SDS011;14507;52.418;13.398;2023-04-03T05:57:13;5.95;;;2.10;;
26951;SDS011;14507;52.418;13.398;2023-04-03T05:59:41;8.15;;;2.33;;
26951;SDS011;14507;52.418;13.398;2023-04-03T06:02:09;10.77;;;2.78;;
26951;SDS011;14507;52.418;13.398;2023-04-03T06:04:39;8.25;;;2.00;;
26951;SDS011;14507;52.418;13.398;2023-04-03T06:07:05;8.65;;;2.40;;
26951;SDS011;14507;52.418;13.398;2023-04-03T06:09:32;10.38;;;2.05;;
26951;SDS011;14507;52.418;13.398;2023-04-03T06:11:58;8.93;;;2.08;;
26951;SDS011;14507;52.418;13.398;2023-04-03T06:14:24;11.20;;;2.10;;
26951;SDS011;14507;52.418;13.398;2023-04-03T06:16:51;11.55;;;2.10;;
26951;SDS011;14507;52.418;13.398;2023-04-03T06:19:17;10.93;;;2.00;;
26951;SDS011;14507;52.418;13.398;2023-04-03T06:21:43;17.25;;;2.25;;
26951;SDS011;14507;52.418;13.398;2023-04-03T06:24:09;9.23;;;1.95;;
26951;SDS011;14507;52.418;13.398;2023-04-03T06:26:37;6.28;;;1.83;;
26951;SDS011;14507;52.418;13.398;2023-04-03T06:29:03;10.35;;;2.10;;
26951;SDS011;14507;52.418;13.398;2023-04-03T06:31:28;10.50;;;1.92;;
26951;SDS011;14507;52.418;13.398;2023-04-03T06:33:54;9.32;;;2.00;;
26951;SDS011;14507;52.418;13.398;2023-04-03T06:36:21;5.07;;;1.95;;
26951;SDS011;14507;52.418;13.398;2023-04-03T06:38:47;9.93;;;2.67;;
26951;SDS011;14507;52.418;13.398;2023-04-03T06:41:12;9.55;;;2.45;;
26951;SDS011;14507;52.418;13.398;2023-04-03T06:43:38;6.15;;;1.63;;
26951;SDS011;14507;52.418;13.398;2023-04-03T06:46:04;6.95;;;1.80;;
26951;SDS011;14507;52.418;13.398;2023-04-03T06:48:30;13.70;;;2.17;;
26951;SDS011;14507;52.418;13.398;2023-04-03T06:50:56;9.10;;;1.70;;
26951;SDS011;14507;52.418;13.398;2023-04-03T06:53:22;10.07;;;1.60;;
26951;SDS011;14507;52.418;13.398;2023-04-03T06:55:47;9.95;;;1.75;;
26951;SDS011;14507;52.418;13.398;2023-04-03T06:58:13;8.38;;;1.70;;
26951;SDS011;14507;52.418;13.398;2023-04-03T07:00:40;5.82;;;1.42;;
26951;SDS011;14507;52.418;13.398;2023-04-03T07:03:06;6.63;;;1.20;;
26951;SDS011;14507;52.418;13.398;2023-04-03T07:05:31;4.32;;;1.40;;
26951;SDS011;14507;52.418;13.398;2023-04-03T07:07:57;9.40;;;1.52;;
26951;SDS011;14507;52.418;13.398;2023-04-03T07:10:23;9.30;;;2.00;;
26951;SDS011;14507;52.418;13.398;2023-04-03T07:12:49;8.45;;;1.50;;
26951;SDS011;14507;52.418;13.398;2023-04-03T07:15:14;5.82;;;1.45;;
26951;SDS011;14507;52.418;13.398;2023-04-03T07:17:40;8.27;;;1.13;;
26951;SDS011;14507;52.418;13.398;2023-04-03T07:20:07;7.80;;;1.48;;
26951;SDS011;14507;52.418;13.398;2023-04-03T07:22:33;10.00;;;1.80;;
26951;SDS011;14507;52.418;13.398;2023-04-03T07:24:58;3.90;;;1.10;;
26951;SDS011;14507;52.418;13.398;2023-04-03T07:27:25;3.95;;;1.17;;
26951;SDS011;14507;52.418;13.398;2023-04-03T07:29:51;3.92;;;1.20;;
26951;SDS011;14507;52.418;13.398;2023-04-03T07:32:16;6.22;;;1.00;;
26951;SDS011;14507;52.418;13.398;2023-04-03T07:34:42;5.18;;;1.20;;
26951;SDS011;14507;52.418;13.398;2023-04-03T07:37:09;9.77;;;1.75;;
26951;SDS011;14507;52.418;13.398;2023-04-03T07:39:35;7.53;;;1.20;;
26951;SDS011;14507;52.418;13.398;2023-04-03T07:42:01;4.30;;;1.10;;
26951;SDS011;14507;52.418;13.398;2023-04-03T07:44:27;3.92;;;1.20;;
26951;SDS011;14507;52.418;13.398;2023-04-03T07:46:53;7.45;;;1.35;;
26951;SDS011;14507;52.418;13.398;2023-04-03T07:49:21;3.95;;;1.25;;
26951;SDS011;14507;52.418;13.398;2023-04-03T07:51:49;6.57;;;2.05;;
26951;SDS011;14507;52.418;13.398;2023-04-03T07:54:14;4.93;;;1.25;;
26951;SDS011;14507;52.418;13.398;2023-04-03T07:56:40;5.00;;;1.13;;
26951;SDS011;14507;52.418;13.398;2023-04-03T07:59:08;4.43;;;0.95;;
26951;SDS011;14507;52.418;13.398;2023-04-03T08:01:34;5.32;;;1.08;;
26951;SDS011;14507;52.418;13.398;2023-04-03T08:04:00;5.88;;;1.38;;
26951;SDS011;14507;52.418;13.398;2023-04-03T08:06:26;8.90;;;2.47;;
26951;SDS011;14507;52.418;13.398;2023-04-03T08:08:51;5.75;;;1.42;;
26951;SDS011;14507;52.418;13.398;2023-04-03T08:11:17;6.20;;;1.58;;
26951;SDS011;14507;52.418;13.398;2023-04-03T08:13:43;6.55;;;1.25;;
26951;SDS011;14507;52.418;13.398;2023-04-03T08:16:15;7.22;;;1.23;;
26951;SDS011;14507;52.418;13.398;2023-04-03T08:18:43;5.75;;;1.50;;
26951;SDS011;14507;52.418;13.398;2023-04-03T08:21:09;10.05;;;1.90;;
26951;SDS011;14507;52.418;13.398;2023-04-03T08:23:36;7.13;;;1.30;;
26951;SDS011;14507;52.418;13.398;2023-04-03T08:26:13;5.55;;;1.38;;
26951;SDS011;14507;52.418;13.398;2023-04-03T08:31:06;6.25;;;1.17;;
26951;SDS011;14507;52.418;13.398;2023-04-03T08:33:37;6.00;;;1.52;;
26951;SDS011;14507;52.418;13.398;2023-04-03T08:36:04;9.02;;;1.90;;
26951;SDS011;14507;52.418;13.398;2023-04-03T08:38:31;6.28;;;1.70;;
26951;SDS011;14507;52.418;13.398;2023-04-03T08:41:04;3.88;;;1.25;;
26951;SDS011;14507;52.418;13.398;2023-04-03T08:46:33;6.68;;;1.50;;
26951;SDS011;14507;52.418;13.398;2023-04-03T08:49:01;7.13;;;1.30;;
26951;SDS011;14507;52.418;13.398;2023-04-03T08:51:27;5.72;;;1.25;;
26951;SDS011;14507;52.418;13.398;2023-04-03T08:54:01;6.15;;;1.10;;
26951;SDS011;14507;52.418;13.398;2023-04-03T08:56:33;5.18;;;1.10;;
26951;SDS011;14507;52.418;13.398;2023-04-03T08:59:00;10.52;;;1.27;;
26951;SDS011;14507;52.418;13.398;2023-04-03T09:01:34;8.07;;;1.08;;
26951;SDS011;14507;52.418;13.398;2023-04-03T09:04:05;6.43;;;0.95;;
26951;SDS011;14507;52.418;13.398;2023-04-03T09:06:36;5.53;;;1.52;;
26951;SDS011;14507;52.418;13.398;2023-04-03T09:17:14;4.70;;;1.50;;
26951;SDS011;14507;52.418;13.398;2023-04-03T09:20:07;8.40;;;1.35;;
26951;SDS011;14507;52.418;13.398;2023-04-03T09:22:42;5.22;;;1.17;;
26951;SDS011;14507;52.418;13.398;2023-04-03T09:28:08;3.65;;;1.08;;
26951;SDS011;14507;52.418;13.398;2023-04-03T09:30:35;6.28;;;1.40;;
26951;SDS011;14507;52.418;13.398;2023-04-03T09:33:02;5.28;;;1.00;;
26951;SDS011;14507;52.418;13.398;2023-04-03T09:35:29;4.30;;;0.98;;
26951;SDS011;14507;52.418;13.398;2023-04-03T09:37:58;5.18;;;1.15;;
26951;SDS011;14507;52.418;13.398;2023-04-03T09:43:01;4.72;;;1.17;;
26951;SDS011;14507;52.418;13.398;2023-04-03T09:45:44;4.30;;;1.10;;
26951;SDS011;14507;52.418;13.398;2023-04-03T09:53:34;7.95;;;1.48;;
26951;SDS011;14507;52.418;13.398;2023-04-03T09:56:01;6.40;;;1.50;;
26951;SDS011;14507;52.418;13.398;2023-04-03T10:01:22;7.63;;;1.50;;
26951;SDS011;14507;52.418;13.398;2023-04-03T10:04:07;2.53;;;0.90;;
26951;SDS011;14507;52.418;13.398;2023-04-03T10:06:37;9.25;;;1.75;;
26951;SDS011;14507;52.418;13.398;2023-04-03T10:14:42;6.78;;;1.40;;
26951;SDS011;14507;52.418;13.398;2023-04-03T10:20:07;3.55;;;1.30;;
26951;SDS011;14507;52.418;13.398;2023-04-03T10:25:55;7.07;;;1.60;;
26951;SDS011;14507;52.418;13.398;2023-04-03T10:28:31;5.78;;;1.60;;
26951;SDS011;14507;52.418;13.398;2023-04-03T10:31:21;5.03;;;1.52;;
26951;SDS011;14507;52.418;13.398;2023-04-03T10:52:48;6.10;;;1.13;;
26951;SDS011;14507;52.418;13.398;2023-04-03T10:55:24;4.68;;;1.45;;
26951;SDS011;14507;52.418;13.398;2023-04-03T10:57:55;3.80;;;1.42;;
26951;SDS011;14507;52.418;13.398;2023-04-03T11:05:52;8.15;;;1.67;;
26951;SDS011;14507;52.418;13.398;2023-04-03T11:11:20;6.20;;;1.60;;
26951;SDS011;14507;52.418;13.398;2023-04-03T11:13:52;5.68;;;1.80;;
26951;SDS011;14507;52.418;13.398;2023-04-03T11:16:42;7.03;;;1.77;;
26951;SDS011;14507;52.418;13.398;2023-04-03T11:19:18;4.45;;;1.15;;
26951;SDS011;14507;52.418;13.398;2023-04-03T11:22:09;4.35;;;1.10;;
26951;SDS011;14507;52.418;13.398;2023-04-03T11:25:36;4.70;;;0.95;;
26951;SDS011;14507;52.418;13.398;2023-04-03T11:27:44;5.90;;;1.20;;
26951;SDS011;14507;52.418;13.398;2023-04-03T11:33:02;4.55;;;1.15;;
26951;SDS011;14507;52.418;13.398;2023-04-03T11:35:30;4.97;;;1.48;;
26951;SDS011;14507;52.418;13.398;2023-04-03T11:37:56;3.55;;;1.40;;
26951;SDS011;14507;52.418;13.398;2023-04-03T11:40:28;5.97;;;1.50;;
26951;SDS011;14507;52.418;13.398;2023-04-03T11:47:57;3.78;;;1.20;;
26951;SDS011;14507;52.418;13.398;2023-04-03T11:50:39;3.97;;;1.40;;
26951;SDS011;14507;52.418;13.398;2023-04-03T12:13:36;4.75;;;1.50;;
26951;SDS011;14507;52.418;13.398;2023-04-03T12:16:18;5.78;;;1.60;;
26951;SDS011;14507;52.418;13.398;2023-04-03T12:27:01;5.38;;;1.73;;
26951;SDS011;14507;52.418;13.398;2023-04-03T12:43:59;4.97;;;1.55;;
26951;SDS011;14507;52.418;13.398;2023-04-03T12:46:39;3.53;;;1.20;;
26951;SDS011;14507;52.418;13.398;2023-04-03T12:51:53;3.72;;;1.20;;
26951;SDS011;14507;52.418;13.398;2023-04-03T12:54:21;5.63;;;1.20;;
26951;SDS011;14507;52.418;13.398;2023-04-03T12:59:58;5.65;;;1.60;;
26951;SDS011;14507;52.418;13.398;2023-04-03T13:02:28;5.07;;;1.30;;
26951;SDS011;14507;52.418;13.398;2023-04-03T13:04:56;3.38;;;1.20;;
26951;SDS011;14507;52.418;13.398;2023-04-03T13:07:31;5.32;;;1.50;;
26951;SDS011;14507;52.418;13.398;2023-04-03T13:12:44;5.68;;;1.30;;
26951;SDS011;14507;52.418;13.398;2023-04-03T13:17:54;4.30;;;1.30;;
26951;SDS011;14507;52.418;13.398;2023-04-03T13:20:31;5.28;;;1.70;;
26951;SDS011;14507;52.418;13.398;2023-04-03T13:23:05;8.40;;;1.20;;
26951;SDS011;14507;52.418;13.398;2023-04-03T13:25:36;5.30;;;1.40;;
26951;SDS011;14507;52.418;13.398;2023-04-03T13:28:05;4.78;;;1.27;;
26951;SDS011;14507;52.418;13.398;2023-04-03T13:30:36;4.50;;;1.30;;
26951;SDS011;14507;52.418;13.398;2023-04-03T13:33:04;5.47;;;1.27;;
26951;SDS011;14507;52.418;13.398;2023-04-03T13:35:36;4.05;;;1.33;;
26951;SDS011;14507;52.418;13.398;2023-04-03T13:40:53;2.83;;;1.15;;
26951;SDS011;14507;52.418;13.398;2023-04-03T13:43:22;4.85;;;1.20;;
26951;SDS011;14507;52.418;13.398;2023-04-03T13:46:01;4.13;;;1.30;;
26951;SDS011;14507;52.418;13.398;2023-04-03T13:48:49;3.65;;;1.20;;
26951;SDS011;14507;52.418;13.398;2023-04-03T13:51:18;4.32;;;1.20;;
26951;SDS011;14507;52.418;13.398;2023-04-03T13:56:39;7.20;;;1.15;;
26951;SDS011;14507;52.418;13.398;2023-04-03T14:01:45;4.43;;;1.30;;
26951;SDS011;14507;52.418;13.398;2023-04-03T14:04:19;6.88;;;1.27;;
26951;SDS011;14507;52.418;13.398;2023-04-03T14:06:47;4.38;;;1.20;;
26951;SDS011;14507;52.418;13.398;2023-04-03T14:09:13;5.20;;;1.20;;
26951;SDS011;14507;52.418;13.398;2023-04-03T14:11:41;3.55;;;1.40;;
26951;SDS011;14507;52.418;13.398;2023-04-03T14:14:14;4.07;;;1.13;;
26951;SDS011;14507;52.418;13.398;2023-04-03T14:16:56;2.90;;;1.08;;
26951;SDS011;14507;52.418;13.398;2023-04-03T14:19:34;5.32;;;1.20;;
26951;SDS011;14507;52.418;13.398;2023-04-03T14:22:05;3.95;;;1.20;;
26951;SDS011;14507;52.418;13.398;2023-04-03T14:24:38;6.15;;;1.30;;
26951;SDS011;14507;52.418;13.398;2023-04-03T14:27:05;7.13;;;1.33;;
26951;SDS011;14507;52.418;13.398;2023-04-03T14:29:47;5.70;;;1.30;;
26951;SDS011;14507;52.418;13.398;2023-04-03T14:32:19;5.00;;;1.15;;
26951;SDS011;14507;52.418;13.398;2023-04-03T14:34:46;4.60;;;1.42;;
26951;SDS011;14507;52.418;13.398;2023-04-03T14:37:15;4.38;;;1.40;;
26951;SDS011;14507;52.418;13.398;2023-04-03T14:39:42;6.57;;;1.23;;
26951;SDS011;14507;52.418;13.398;2023-04-03T14:42:13;3.22;;;1.20;;
26951;SDS011;14507;52.418;13.398;2023-04-03T14:44:40;6.47;;;1.70;;
26951;SDS011;14507;52.418;13.398;2023-04-03T14:47:09;7.05;;;1.25;;
26951;SDS011;14507;52.418;13.398;2023-04-03T14:49:39;3.00;;;1.00;;
26951;SDS011;14507;52.418;13.398;2023-04-03T14:52:05;4.93;;;1.35;;
26951;SDS011;14507;52.418;13.398;2023-04-03T14:54:31;3.95;;;1.42;;
26951;SDS011;14507;52.418;13.398;2023-04-03T14:56:57;6.35;;;1.30;;
26951;SDS011;14507;52.418;13.398;2023-04-03T14:59:24;9.43;;;1.60;;
26951;SDS011;14507;52.418;13.398;2023-04-03T15:01:51;3.20;;;1.50;;
26951;SDS011;14507;52.418;13.398;2023-04-03T15:04:18;3.70;;;1.20;;
26951;SDS011;14507;52.418;13.398;2023-04-03T15:06:45;9.05;;;1.45;;
26951;SDS011;14507;52.418;13.398;2023-04-03T15:09:20;5.68;;;2.08;;
26951;SDS011;14507;52.418;13.398;2023-04-03T15:11:51;4.53;;;1.58;;
26951;SDS011;14507;52.418;13.398;2023-04-03T15:14:17;6.35;;;1.50;;
26951;SDS011;14507;52.418;13.398;2023-04-03T15:16:43;3.78;;;1.27;;
26951;SDS011;14507;52.418;13.398;2023-04-03T15:19:09;4.07;;;1.40;;
26951;SDS011;14507;52.418;13.398;2023-04-03T15:21:36;4.75;;;1.23;;
26951;SDS011;14507;52.418;13.398;2023-04-03T15:24:02;2.97;;;1.23;;
26951;SDS011;14507;52.418;13.398;2023-04-03T15:26:28;6.88;;;1.45;;
26951;SDS011;14507;52.418;13.398;2023-04-03T15:28:54;5.60;;;1.17;;
26951;SDS011;14507;52.418;13.398;2023-04-03T15:31:20;5.85;;;1.60;;
26951;SDS011;14507;52.418;13.398;2023-04-03T15:33:45;5.65;;;1.45;;
26951;SDS011;14507;52.418;13.398;2023-04-03T15:36:11;7.20;;;1.27;;
26951;SDS011;14507;52.418;13.398;2023-04-03T15:38:37;6.60;;;1.40;;
26951;SDS011;14507;52.418;13.398;2023-04-03T15:41:03;5.90;;;1.40;;
26951;SDS011;14507;52.418;13.398;2023-04-03T15:43:29;5.30;;;1.50;;
26951;SDS011;14507;52.418;13.398;2023-04-03T15:45:56;5.38;;;1.48;;
26951;SDS011;14507;52.418;13.398;2023-04-03T15:48:23;5.50;;;1.20;;
26951;SDS011;14507;52.418;13.398;2023-04-03T15:50:49;4.85;;;1.33;;
26951;SDS011;14507;52.418;13.398;2023-04-03T15:53:14;5.32;;;1.90;;
26951;SDS011;14507;52.418;13.398;2023-04-03T15:55:40;8.52;;;1.85;;
26951;SDS011;14507;52.418;13.398;2023-04-03T15:58:06;8.13;;;1.45;;
26951;SDS011;14507;52.418;13.398;2023-04-03T16:00:32;7.30;;;1.40;;
26951;SDS011;14507;52.418;13.398;2023-04-03T16:03:04;2.88;;;1.08;;
26951;SDS011;14507;52.418;13.398;2023-04-03T16:05:31;4.65;;;1.30;;
26951;SDS011;14507;52.418;13.398;2023-04-03T16:07:58;7.53;;;1.67;;
26951;SDS011;14507;52.418;13.398;2023-04-03T16:10:25;3.20;;;1.50;;
26951;SDS011;14507;52.418;13.398;2023-04-03T16:12:51;5.68;;;1.50;;
26951;SDS011;14507;52.418;13.398;2023-04-03T16:15:16;4.47;;;1.40;;
26951;SDS011;14507;52.418;13.398;2023-04-03T16:17:42;5.07;;;1.40;;
26951;SDS011;14507;52.418;13.398;2023-04-03T16:20:08;5.07;;;1.75;;
26951;SDS011;14507;52.418;13.398;2023-04-03T16:22:35;4.88;;;1.70;;
26951;SDS011;14507;52.418;13.398;2023-04-03T16:25:02;6.72;;;1.70;;
26951;SDS011;14507;52.418;13.398;2023-04-03T16:27:29;6.30;;;1.70;;
26951;SDS011;14507;52.418;13.398;2023-04-03T16:29:56;5.55;;;1.48;;
26951;SDS011;14507;52.418;13.398;2023-04-03T16:32:22;4.35;;;2.10;;
26951;SDS011;14507;52.418;13.398;2023-04-03T16:34:49;3.23;;;1.30;;
26951;SDS011;14507;52.418;13.398;2023-04-03T16:37:15;8.57;;;2.00;;
26951;SDS011;14507;52.418;13.398;2023-04-03T16:39:41;5.63;;;2.10;;
26951;SDS011;14507;52.418;13.398;2023-04-03T16:42:07;3.13;;;1.30;;
26951;SDS011;14507;52.418;13.398;2023-04-03T16:44:34;6.18;;;1.48;;
26951;SDS011;14507;52.418;13.398;2023-04-03T16:47:00;4.82;;;1.45;;
26951;SDS011;14507;52.418;13.398;2023-04-03T16:49:26;4.30;;;1.30;;
26951;SDS011;14507;52.418;13.398;2023-04-03T16:51:57;5.68;;;1.35;;
26951;SDS011;14507;52.418;13.398;2023-04-03T16:54:23;3.45;;;1.58;;
26951;SDS011;14507;52.418;13.398;2023-04-03T16:56:48;6.38;;;1.75;;
26951;SDS011;14507;52.418;13.398;2023-04-03T16:59:14;4.47;;;1.70;;
26951;SDS011;14507;52.418;13.398;2023-04-03T17:01:40;3.45;;;1.50;;
26951;SDS011;14507;52.418;13.398;2023-04-03T17:04:06;3.42;;;1.60;;